Time;durP1;ratioP1;P1;durP2;ratioP2;P2;SDS_P1;SDS_P2;PMS_P1;PMS_P2;Temp;Humidity;BMP_temperature;BMP_pressure;BME280_temperature;BME280_humidity;BME280_pressure;Samples;Min_cycle;Max_cycle;Signal;HPM_P1;HPM_P2
2023/01/11 00:00:08;;;;;;;1.20;0.43;;;;;;;;;;522762;27;1468;-63
2023/01/11 00:00:24;;;;;;;1.42;0.45;;;;;;;;;;525506;27;1453;-63
2023/01/11 00:00:40;;;;;;;1.13;0.50;;;;;;;;;;525137;27;1162;-63
2023/01/11 00:00:55;;;;;;;0.80;0.50;;;;;;;;;;525991;27;2048;-63
2023/01/11 00:01:11;;;;;;;0.87;0.50;;;;;;;;;;524963;27;1464;-63
2023/01/11 00:01:26;;;;;;;1.00;0.50;;;;;;;;;;521895;28;1243;-63
2023/01/11 00:01:41;;;;;;;0.85;0.50;;;;;;;;;;523366;28;1307;-63
2023/01/11 00:01:56;;;;;;;1.20;0.40;;;;;;;;;;523089;28;1473;-63
2023/01/11 00:02:12;;;;;;;1.13;0.33;;;;;;;;;;523955;28;1454;-63
2023/01/11 00:02:27;;;;;;;0.70;0.30;;;;;;;;;;520529;28;1686;-63
2023/01/11 00:02:44;;;;;;;0.90;0.40;;;;;;;;;;521957;28;1404;-63
2023/01/11 00:03:02;;;;;;;0.85;0.40;;;;;;;;;;523747;28;1277;-63
2023/01/11 00:03:17;;;;;;;0.90;0.50;;;;;;;;;;524225;28;1387;-63
2023/01/11 00:03:33;;;;;;;0.70;0.40;;;;;;;;;;524650;28;1376;-63
2023/01/11 00:03:48;;;;;;;0.63;0.40;;;;;;;;;;524048;28;1111;-63
2023/01/11 00:04:03;;;;;;;0.70;0.40;;;;;;;;;;522930;28;1658;-63
2023/01/11 00:04:19;;;;;;;0.90;0.47;;;;;;;;;;522948;28;1489;-63
2023/01/11 00:04:34;;;;;;;0.90;0.50;;;;;;;;;;521001;28;1274;-63
2023/01/11 00:04:49;;;;;;;1.07;0.50;;;;;;;;;;519994;28;1424;-63
2023/01/11 00:05:06;;;;;;;1.08;0.40;;;;;;;;;;521394;28;1442;-63
2023/01/11 00:05:21;;;;;;;0.65;0.30;;;;;;;;;;521702;28;1376;-63
2023/01/11 00:05:41;;;;;;;1.05;0.40;;;;;;;;;;522731;28;1686;-63
2023/01/11 00:05:57;;;;;;;1.42;0.40;;;;;;;;;;520724;28;1258;-63
2023/01/11 00:06:13;;;;;;;1.00;0.30;;;;;;;;;;522527;28;1141;-63
2023/01/11 00:06:28;;;;;;;0.90;0.40;;;;;;;;;;522441;28;1251;-63
2023/01/11 00:06:44;;;;;;;1.30;0.40;;;;;;;;;;521905;28;1252;-63
2023/01/11 00:06:59;;;;;;;1.05;0.40;;;;;;;;;;520150;28;1614;-63
2023/01/11 00:07:15;;;;;;;1.00;0.47;;;;;;;;;;517900;28;1770;-63
2023/01/11 00:07:30;;;;;;;0.80;0.40;;;;;;;;;;518357;28;1363;-63
2023/01/11 00:07:45;;;;;;;0.60;0.30;;;;;;;;;;519275;28;1487;-63
2023/01/11 00:08:00;;;;;;;0.60;0.40;;;;;;;;;;518555;28;1424;-63
2023/01/11 00:08:18;;;;;;;0.87;0.50;;;;;;;;;;519507;28;1400;-63
2023/01/11 00:08:33;;;;;;;1.13;0.50;;;;;;;;;;519913;28;1279;-63
2023/01/11 00:08:48;;;;;;;1.00;0.40;;;;;;;;;;520247;28;1730;-63
2023/01/11 00:09:03;;;;;;;0.90;0.43;;;;;;;;;;520279;28;1336;-63
2023/01/11 00:09:19;;;;;;;0.60;0.50;;;;;;;;;;520406;28;1246;-63
2023/01/11 00:09:34;;;;;;;0.73;0.43;;;;;;;;;;519578;28;1329;-63
2023/01/11 00:09:49;;;;;;;0.90;0.60;;;;;;;;;;520399;28;1337;-63
2023/01/11 00:10:06;;;;;;;0.90;0.70;;;;;;;;;;519555;28;1239;-63
2023/01/11 00:10:22;;;;;;;1.05;0.70;;;;;;;;;;520192;28;1380;-63
2023/01/11 00:10:37;;;;;;;1.17;0.73;;;;;;;;;;520824;28;2293;-63
2023/01/11 00:10:53;;;;;;;1.67;0.65;;;;;;;;;;520111;28;1324;-63
2023/01/11 00:11:14;;;;;;;1.55;0.50;;;;;;;;;;519589;28;1523;-63
2023/01/11 00:11:29;;;;;;;1.27;0.50;;;;;;;;;;517204;28;1186;-63
2023/01/11 00:11:44;;;;;;;1.00;0.43;;;;;;;;;;519099;28;1326;-63
2023/01/11 00:11:59;;;;;;;0.70;0.40;;;;;;;;;;519073;28;1813;-63
2023/01/11 00:12:15;;;;;;;0.87;0.40;;;;;;;;;;522208;28;1426;-63
2023/01/11 00:12:30;;;;;;;1.20;0.43;;;;;;;;;;521719;28;1106;-63
2023/01/11 00:12:46;;;;;;;0.97;0.40;;;;;;;;;;520113;28;1473;-63
2023/01/11 00:13:02;;;;;;;0.88;0.40;;;;;;;;;;521625;28;1241;-64
2023/01/11 00:13:18;;;;;;;1.02;0.50;;;;;;;;;;522130;28;1275;-63
2023/01/11 00:13:33;;;;;;;1.13;0.52;;;;;;;;;;525574;27;1406;-63
2023/01/11 00:13:49;;;;;;;1.17;0.60;;;;;;;;;;526547;27;2123;-63
2023/01/11 00:14:04;;;;;;;1.07;0.60;;;;;;;;;;525426;27;1544;-63
2023/01/11 00:14:19;;;;;;;1.10;0.50;;;;;;;;;;523494;28;1182;-63
2023/01/11 00:14:35;;;;;;;1.30;0.50;;;;;;;;;;524795;28;1398;-63
2023/01/11 00:14:50;;;;;;;1.25;0.40;;;;;;;;;;525269;27;1452;-63
2023/01/11 00:15:06;;;;;;;1.10;0.40;;;;;;;;;;526971;27;1417;-63
2023/01/11 00:15:21;;;;;;;0.87;0.50;;;;;;;;;;525374;27;1795;-63
2023/01/11 00:15:37;;;;;;;0.83;0.43;;;;;;;;;;526800;27;1377;-63
2023/01/11 00:15:52;;;;;;;0.90;0.40;;;;;;;;;;524733;27;1178;-63
2023/01/11 00:16:08;;;;;;;0.70;0.37;;;;;;;;;;525241;27;1431;-63
2023/01/11 00:16:23;;;;;;;0.60;0.30;;;;;;;;;;526542;27;1349;-63
2023/01/11 00:16:39;;;;;;;0.97;0.47;;;;;;;;;;524744;27;1212;-63
2023/01/11 00:16:57;;;;;;;1.77;0.60;;;;;;;;;;525407;28;1766;-63
2023/01/11 00:17:12;;;;;;;1.42;0.50;;;;;;;;;;521912;28;1454;-63
2023/01/11 00:17:28;;;;;;;0.80;0.40;;;;;;;;;;520454;28;1286;-63
2023/01/11 00:17:43;;;;;;;1.50;0.50;;;;;;;;;;518594;28;1227;-63
2023/01/11 00:17:58;;;;;;;1.53;0.50;;;;;;;;;;521236;28;1419;-63
2023/01/11 00:18:14;;;;;;;1.10;0.40;;;;;;;;;;520901;28;1415;-63
2023/01/11 00:18:29;;;;;;;1.10;0.40;;;;;;;;;;519856;28;1930;-63
2023/01/11 00:18:44;;;;;;;1.00;0.47;;;;;;;;;;521099;28;1062;-63
2023/01/11 00:18:59;;;;;;;0.80;0.43;;;;;;;;;;519880;28;1082;-63
2023/01/11 00:19:15;;;;;;;0.90;0.40;;;;;;;;;;519755;28;1389;-63
2023/01/11 00:19:30;;;;;;;1.00;0.40;;;;;;;;;;520020;28;1424;-63
2023/01/11 00:19:45;;;;;;;0.67;0.40;;;;;;;;;;519548;28;1238;-63
2023/01/11 00:20:01;;;;;;;0.90;0.43;;;;;;;;;;520902;28;1761;-63
2023/01/11 00:20:18;;;;;;;1.15;0.60;;;;;;;;;;521344;28;1090;-63
2023/01/11 00:20:34;;;;;;;1.00;0.80;;;;;;;;;;522280;28;1132;-63
2023/01/11 00:20:49;;;;;;;1.08;0.77;;;;;;;;;;522416;28;1447;-64
2023/01/11 00:21:05;;;;;;;1.40;0.70;;;;;;;;;;524955;28;1135;-63
2023/01/11 00:21:21;;;;;;;1.50;0.68;;;;;;;;;;522907;28;1290;-63
2023/01/11 00:21:36;;;;;;;1.10;0.60;;;;;;;;;;523934;28;2881;-63
2023/01/11 00:21:51;;;;;;;1.25;0.63;;;;;;;;;;524537;28;1410;-63
2023/01/11 00:22:07;;;;;;;1.43;0.70;;;;;;;;;;523120;28;1350;-63
2023/01/11 00:22:22;;;;;;;1.40;0.60;;;;;;;;;;521192;28;1251;-63
2023/01/11 00:22:37;;;;;;;1.70;1.00;;;;;;;;;;522174;28;1360;-63
2023/01/11 00:22:53;;;;;;;2.28;1.98;;;;;;;;;;523637;28;1331;-63
2023/01/11 00:23:08;;;;;;;2.20;1.77;;;;;;;;;;524036;28;1533;-64
2023/01/11 00:23:23;;;;;;;1.65;1.10;;;;;;;;;;524715;28;1747;-63
2023/01/11 00:23:39;;;;;;;1.37;1.10;;;;;;;;;;521480;28;1345;-63
2023/01/11 00:23:54;;;;;;;1.52;1.20;;;;;;;;;;523392;28;1152;-63
2023/01/11 00:24:10;;;;;;;1.40;1.10;;;;;;;;;;523199;28;1473;-63
2023/01/11 00:24:26;;;;;;;1.30;1.00;;;;;;;;;;522782;28;1432;-63
2023/01/11 00:24:41;;;;;;;1.20;0.80;;;;;;;;;;521398;28;1438;-64
2023/01/11 00:24:56;;;;;;;1.23;0.80;;;;;;;;;;522739;28;1788;-63
2023/01/11 00:25:11;;;;;;;1.35;0.77;;;;;;;;;;521895;28;1487;-63
2023/01/11 00:25:27;;;;;;;0.90;0.60;;;;;;;;;;523461;28;1378;-63
2023/01/11 00:25:42;;;;;;;1.00;0.60;;;;;;;;;;520492;28;1408;-63
2023/01/11 00:25:57;;;;;;;1.58;0.70;;;;;;;;;;522387;28;1481;-65
2023/01/11 00:26:12;;;;;;;1.30;0.60;;;;;;;;;;521599;28;1097;-63
2023/01/11 00:26:28;;;;;;;0.63;0.40;;;;;;;;;;522420;28;1745;-63
2023/01/11 00:26:43;;;;;;;0.43;0.40;;;;;;;;;;522822;28;1425;-63
2023/01/11 00:26:58;;;;;;;0.95;0.43;;;;;;;;;;522848;28;1410;-63
2023/01/11 00:27:14;;;;;;;1.03;0.50;;;;;;;;;;522507;28;1394;-65
2023/01/11 00:27:29;;;;;;;0.97;0.50;;;;;;;;;;518930;28;1164;-63
2023/01/11 00:27:46;;;;;;;2.17;0.60;;;;;;;;;;521795;28;1408;-64
2023/01/11 00:28:01;;;;;;;1.73;0.52;;;;;;;;;;522263;28;1780;-63
2023/01/11 00:28:17;;;;;;;1.00;0.40;;;;;;;;;;521920;28;1305;-63
2023/01/11 00:28:32;;;;;;;1.20;0.40;;;;;;;;;;521197;28;1182;-63
2023/01/11 00:28:48;;;;;;;1.10;0.52;;;;;;;;;;520731;28;1558;-63
2023/01/11 00:29:04;;;;;;;0.75;0.60;;;;;;;;;;522158;28;1422;-63
2023/01/11 00:29:19;;;;;;;0.73;0.50;;;;;;;;;;522806;28;1379;-63
2023/01/11 00:29:34;;;;;;;0.70;0.50;;;;;;;;;;523749;28;1224;-63
2023/01/11 00:29:49;;;;;;;0.70;0.50;;;;;;;;;;524401;28;1999;-62
2023/01/11 00:30:05;;;;;;;1.13;0.50;;;;;;;;;;524693;28;1267;-62
2023/01/11 00:30:21;;;;;;;1.50;0.60;;;;;;;;;;523821;28;1338;-63
2023/01/11 00:30:36;;;;;;;1.33;0.60;;;;;;;;;;522604;28;1415;-63
2023/01/11 00:30:51;;;;;;;0.90;0.50;;;;;;;;;;523664;28;1281;-63
2023/01/11 00:31:07;;;;;;;0.90;0.50;;;;;;;;;;523291;28;1434;-63
2023/01/11 00:31:22;;;;;;;1.05;0.50;;;;;;;;;;522630;28;1696;-63
2023/01/11 00:31:38;;;;;;;1.70;0.50;;;;;;;;;;520093;28;1451;-63
2023/01/11 00:31:53;;;;;;;1.75;0.45;;;;;;;;;;521444;28;1154;-63
2023/01/11 00:32:09;;;;;;;1.77;0.50;;;;;;;;;;521385;28;1163;-63
2023/01/11 00:32:26;;;;;;;1.45;0.50;;;;;;;;;;522210;28;1465;-63
2023/01/11 00:32:41;;;;;;;0.60;0.40;;;;;;;;;;524191;28;1180;-63
2023/01/11 00:32:58;;;;;;;0.57;0.40;;;;;;;;;;524083;28;1732;-63
2023/01/11 00:33:14;;;;;;;0.80;0.50;;;;;;;;;;522445;28;1387;-63
2023/01/11 00:33:29;;;;;;;1.40;0.60;;;;;;;;;;521544;28;1276;-63
2023/01/11 00:33:44;;;;;;;1.60;0.60;;;;;;;;;;522406;28;1387;-63
2023/01/11 00:33:59;;;;;;;1.60;0.60;;;;;;;;;;519442;28;1507;-63
2023/01/11 00:34:15;;;;;;;1.40;0.50;;;;;;;;;;519276;28;1119;-63
2023/01/11 00:34:30;;;;;;;1.33;0.50;;;;;;;;;;519321;28;1186;-63
2023/01/11 00:34:45;;;;;;;1.80;0.60;;;;;;;;;;517977;28;1581;-63
2023/01/11 00:35:02;;;;;;;1.70;0.70;;;;;;;;;;517457;28;1377;-63
2023/01/11 00:35:17;;;;;;;1.20;0.65;;;;;;;;;;520734;28;1086;-63
2023/01/11 00:35:32;;;;;;;1.10;0.60;;;;;;;;;;521070;28;1312;-63
2023/01/11 00:35:50;;;;;;;1.20;0.50;;;;;;;;;;520952;28;1521;-62
2023/01/11 00:36:08;;;;;;;1.10;0.50;;;;;;;;;;520591;28;1765;-63
2023/01/11 00:36:23;;;;;;;0.75;0.50;;;;;;;;;;517682;28;1159;-63
2023/01/11 00:36:39;;;;;;;1.40;1.10;;;;;;;;;;518531;28;1246;-62
2023/01/11 00:36:54;;;;;;;2.97;2.67;;;;;;;;;;520452;28;1309;-62
2023/01/11 00:37:09;;;;;;;3.63;2.60;;;;;;;;;;522637;28;1410;-62
2023/01/11 00:37:24;;;;;;;2.97;1.33;;;;;;;;;;522943;28;1447;-63
2023/01/11 00:37:40;;;;;;;1.90;1.10;;;;;;;;;;520677;28;1291;-62
2023/01/11 00:37:55;;;;;;;1.50;0.97;;;;;;;;;;523497;28;2164;-62
2023/01/11 00:38:42;;;;;;;1.25;0.80;;;;;;;;;;525074;28;1452;-62
2023/01/11 00:38:50;;;;;;;1.10;0.70;;;;;;;;;;526777;27;1255;-62
2023/01/11 00:39:05;;;;;;;1.35;0.60;;;;;;;;;;525961;28;1227;-62
2023/01/11 00:39:20;;;;;;;1.67;0.63;;;;;;;;;;525692;27;1726;-63
2023/01/11 00:39:35;;;;;;;1.20;0.63;;;;;;;;;;529394;27;1401;-63
2023/01/11 00:39:51;;;;;;;1.17;0.50;;;;;;;;;;526115;27;1166;-63
2023/01/11 00:40:07;;;;;;;1.17;0.50;;;;;;;;;;526851;27;1366;-62
2023/01/11 00:40:23;;;;;;;1.35;0.50;;;;;;;;;;527628;27;1447;-63
2023/01/11 00:40:38;;;;;;;1.13;0.50;;;;;;;;;;525719;27;1068;-63
2023/01/11 00:40:53;;;;;;;1.00;0.50;;;;;;;;;;525124;28;1449;-63
2023/01/11 00:48:03;;;;;;;1.13;0.60;;;;;;;;;;518742;28;1141;-63
2023/01/11 00:48:18;;;;;;;0.80;0.50;;;;;;;;;;518231;28;1030;-63
2023/01/11 00:48:34;;;;;;;0.88;0.50;;;;;;;;;;518197;28;1319;-63
2023/01/11 00:48:49;;;;;;;0.90;0.50;;;;;;;;;;519332;28;1209;-63
2023/01/11 00:49:04;;;;;;;1.33;0.50;;;;;;;;;;517050;28;1217;-63
2023/01/11 00:49:20;;;;;;;1.60;0.60;;;;;;;;;;516584;28;1240;-63
2023/01/11 00:49:35;;;;;;;1.38;0.75;;;;;;;;;;520298;28;1317;-63
2023/01/11 00:49:50;;;;;;;1.30;0.60;;;;;;;;;;521919;28;1331;-63
2023/01/11 00:50:06;;;;;;;1.50;0.60;;;;;;;;;;522214;28;1307;-63
2023/01/11 00:50:25;;;;;;;1.33;0.68;;;;;;;;;;522015;28;1277;-62
2023/01/11 00:50:41;;;;;;;1.33;0.50;;;;;;;;;;522953;28;1266;-62
2023/01/11 00:50:56;;;;;;;1.17;0.50;;;;;;;;;;521396;28;1244;-62
2023/01/11 00:51:11;;;;;;;1.50;0.60;;;;;;;;;;521897;28;1170;-63
2023/01/11 00:51:27;;;;;;;1.77;0.70;;;;;;;;;;521091;28;1102;-63
2023/01/11 00:51:42;;;;;;;1.40;0.60;;;;;;;;;;521987;28;1161;-63
2023/01/11 00:51:58;;;;;;;0.90;0.50;;;;;;;;;;523338;28;1157;-63
2023/01/11 00:52:13;;;;;;;1.00;0.40;;;;;;;;;;524876;28;1089;-63
2023/01/11 00:52:28;;;;;;;1.30;0.60;;;;;;;;;;522256;28;1170;-63
2023/01/11 00:52:44;;;;;;;1.30;0.67;;;;;;;;;;527706;27;1128;-63
2023/01/11 00:52:59;;;;;;;1.30;0.60;;;;;;;;;;528578;27;1088;-63
2023/01/11 00:53:17;;;;;;;1.23;0.63;;;;;;;;;;527951;27;1160;-63
2023/01/11 00:53:32;;;;;;;1.05;0.65;;;;;;;;;;527789;27;1140;-64
2023/01/11 00:53:49;;;;;;;1.43;0.60;;;;;;;;;;528210;27;1192;-63
2023/01/11 00:54:05;;;;;;;1.90;0.70;;;;;;;;;;529313;27;1162;-62
2023/01/11 00:54:20;;;;;;;2.03;0.70;;;;;;;;;;528868;27;1319;-63
2023/01/11 00:54:37;;;;;;;2.30;0.70;;;;;;;;;;525869;28;1258;-63
2023/01/11 00:54:52;;;;;;;1.83;0.60;;;;;;;;;;526539;27;1335;-63
2023/01/11 00:55:08;;;;;;;1.27;0.60;;;;;;;;;;525749;28;1192;-63
2023/01/11 00:55:24;;;;;;;1.93;0.67;;;;;;;;;;525478;28;1292;-63
2023/01/11 00:55:39;;;;;;;1.88;0.65;;;;;;;;;;525722;28;1006;-63
2023/01/11 00:55:54;;;;;;;1.30;0.63;;;;;;;;;;523730;28;1333;-63
2023/01/11 00:56:10;;;;;;;1.10;0.60;;;;;;;;;;521314;28;1108;-63
2023/01/11 00:56:25;;;;;;;1.00;0.60;;;;;;;;;;522801;28;1264;-63
2023/01/11 00:56:40;;;;;;;1.63;0.60;;;;;;;;;;522348;28;1189;-63
2023/01/11 00:56:56;;;;;;;1.50;0.60;;;;;;;;;;520217;28;1420;-63
2023/01/11 00:57:11;;;;;;;1.07;0.60;;;;;;;;;;522452;28;1179;-63
2023/01/11 00:57:26;;;;;;;1.30;0.60;;;;;;;;;;523309;28;1332;-63
2023/01/11 00:57:41;;;;;;;1.40;0.53;;;;;;;;;;521495;28;1233;-63
2023/01/11 00:57:57;;;;;;;1.13;0.60;;;;;;;;;;523515;28;1144;-63
2023/01/11 00:58:12;;;;;;;1.55;0.60;;;;;;;;;;520373;28;1226;-63
2023/01/11 00:58:28;;;;;;;2.53;0.70;;;;;;;;;;522771;28;1917;-63
2023/01/11 00:58:43;;;;;;;2.65;0.70;;;;;;;;;;520856;28;1495;-63
2023/01/11 00:58:58;;;;;;;2.07;0.70;;;;;;;;;;520574;28;1250;-63
2023/01/11 00:59:13;;;;;;;1.40;0.60;;;;;;;;;;521066;28;1129;-63
2023/01/11 00:59:29;;;;;;;1.20;0.60;;;;;;;;;;522667;28;1093;-64
2023/01/11 00:59:44;;;;;;;1.40;0.60;;;;;;;;;;521356;28;1423;-63
2023/01/11 00:59:59;;;;;;;1.80;0.60;;;;;;;;;;523506;28;1311;-63
2023/01/11 01:00:15;;;;;;;1.70;0.63;;;;;;;;;;522303;28;1316;-62
2023/01/11 01:00:31;;;;;;;1.08;0.60;;;;;;;;;;522444;28;1364;-63
2023/01/11 01:00:46;;;;;;;1.05;0.50;;;;;;;;;;520858;28;1066;-63
2023/01/11 01:01:06;;;;;;;1.20;0.60;;;;;;;;;;523283;28;1086;-64
2023/01/11 01:01:21;;;;;;;1.55;0.60;;;;;;;;;;521311;28;1555;-63
2023/01/11 01:01:37;;;;;;;1.37;0.60;;;;;;;;;;519450;28;1436;-63
2023/01/11 01:01:52;;;;;;;1.13;0.60;;;;;;;;;;522171;28;1210;-63
2023/01/11 01:02:09;;;;;;;1.10;0.53;;;;;;;;;;521748;28;1267;-63
2023/01/11 01:02:24;;;;;;;1.70;0.60;;;;;;;;;;522331;28;1481;-64
2023/01/11 01:02:39;;;;;;;1.67;0.70;;;;;;;;;;520139;28;1285;-63
2023/01/11 01:02:55;;;;;;;1.35;0.70;;;;;;;;;;516338;28;1230;-63
2023/01/11 01:03:10;;;;;;;1.20;0.63;;;;;;;;;;519288;28;1271;-63
2023/01/11 01:03:26;;;;;;;1.25;0.60;;;;;;;;;;518666;28;1408;-64
2023/01/11 01:03:41;;;;;;;1.33;0.70;;;;;;;;;;519782;28;1392;-63
2023/01/11 01:03:58;;;;;;;1.20;0.70;;;;;;;;;;517659;28;1323;-63
2023/01/11 01:04:13;;;;;;;1.85;0.75;;;;;;;;;;518947;28;1251;-63
2023/01/11 01:04:28;;;;;;;2.10;0.70;;;;;;;;;;521171;28;1307;-63
2023/01/11 01:04:44;;;;;;;1.27;0.70;;;;;;;;;;520588;28;1348;-63
2023/01/11 01:05:00;;;;;;;1.05;0.60;;;;;;;;;;520469;28;1352;-63
2023/01/11 01:05:16;;;;;;;0.80;0.50;;;;;;;;;;517297;28;1204;-63
2023/01/11 01:05:32;;;;;;;0.98;0.57;;;;;;;;;;518763;28;1673;-63
2023/01/11 01:05:47;;;;;;;1.90;0.70;;;;;;;;;;520732;28;968;-63
2023/01/11 01:06:02;;;;;;;1.42;0.70;;;;;;;;;;518555;28;1519;-63
2023/01/11 01:06:18;;;;;;;1.30;0.70;;;;;;;;;;520362;28;1379;-63
2023/01/11 01:06:33;;;;;;;2.50;0.77;;;;;;;;;;520881;28;1297;-63
2023/01/11 01:06:48;;;;;;;2.13;0.75;;;;;;;;;;523174;28;1085;-63
2023/01/11 01:07:05;;;;;;;1.07;0.67;;;;;;;;;;521120;28;1570;-63
2023/01/11 01:07:20;;;;;;;0.95;0.60;;;;;;;;;;520403;28;1256;-63
2023/01/11 01:07:36;;;;;;;1.30;0.60;;;;;;;;;;522231;28;1105;-63
2023/01/11 01:07:51;;;;;;;1.43;0.63;;;;;;;;;;522618;28;1219;-63
2023/01/11 01:08:07;;;;;;;1.60;0.70;;;;;;;;;;519957;28;1279;-64
2023/01/11 01:08:22;;;;;;;1.20;0.70;;;;;;;;;;520440;28;1253;-63
2023/01/11 01:08:37;;;;;;;1.03;0.70;;;;;;;;;;518868;28;1071;-63
2023/01/11 01:08:52;;;;;;;1.35;0.70;;;;;;;;;;517663;28;1191;-63
2023/01/11 01:09:08;;;;;;;2.13;0.70;;;;;;;;;;518598;28;1361;-63
2023/01/11 01:09:23;;;;;;;1.90;0.70;;;;;;;;;;520532;28;1237;-63
2023/01/11 01:09:38;;;;;;;1.52;0.70;;;;;;;;;;521315;28;1193;-63
2023/01/11 01:09:53;;;;;;;1.77;0.70;;;;;;;;;;520232;28;1237;-63
2023/01/11 01:10:11;;;;;;;1.60;0.60;;;;;;;;;;521180;28;1197;-63
2023/01/11 01:10:26;;;;;;;1.20;0.60;;;;;;;;;;519993;28;1752;-63
2023/01/11 01:10:41;;;;;;;1.70;0.60;;;;;;;;;;517626;28;1138;-63
2023/01/11 01:10:57;;;;;;;2.20;0.70;;;;;;;;;;520794;28;1224;-63
2023/01/11 01:11:12;;;;;;;1.37;0.70;;;;;;;;;;519827;28;1246;-63
2023/01/11 01:11:27;;;;;;;1.23;0.70;;;;;;;;;;521858;28;1367;-62
2023/01/11 01:11:43;;;;;;;1.30;0.70;;;;;;;;;;523780;28;1102;-63
2023/01/11 01:12:00;;;;;;;1.20;0.70;;;;;;;;;;521707;28;1031;-62
2023/01/11 01:14:32;;;;;;;1.58;0.70;;;;;;;;;;527898;27;1010;-63
2023/01/11 01:14:47;;;;;;;1.50;0.70;;;;;;;;;;525131;28;1360;-63
2023/01/11 01:15:03;;;;;;;1.67;0.60;;;;;;;;;;524980;28;1043;-63
2023/01/11 01:15:19;;;;;;;1.98;0.70;;;;;;;;;;525986;28;1486;-63
2023/01/11 01:15:34;;;;;;;1.40;0.70;;;;;;;;;;525761;28;1348;-63
2023/01/11 01:15:56;;;;;;;1.63;0.70;;;;;;;;;;526242;28;1202;-63
2023/01/11 01:16:11;;;;;;;1.77;0.80;;;;;;;;;;526632;28;1136;-63
2023/01/11 01:16:27;;;;;;;1.97;0.70;;;;;;;;;;523952;28;1315;-63
2023/01/11 01:16:44;;;;;;;1.75;0.70;;;;;;;;;;523576;28;1169;-63
2023/01/11 01:17:08;;;;;;;1.75;0.90;;;;;;;;;;523448;28;1153;-63
2023/01/11 01:17:24;;;;;;;1.23;0.70;;;;;;;;;;524456;28;1266;-63
2023/01/11 01:17:39;;;;;;;1.60;0.80;;;;;;;;;;525729;28;1133;-63
2023/01/11 01:17:55;;;;;;;1.53;0.77;;;;;;;;;;524269;28;1411;-64
2023/01/11 01:18:10;;;;;;;1.25;0.80;;;;;;;;;;522775;28;1181;-64
2023/01/11 01:18:25;;;;;;;1.27;0.83;;;;;;;;;;521055;28;1922;-63
2023/01/11 01:18:41;;;;;;;1.50;0.70;;;;;;;;;;520372;28;1179;-63
2023/01/11 01:18:57;;;;;;;1.40;0.60;;;;;;;;;;520122;28;1119;-64
2023/01/11 01:19:13;;;;;;;1.23;0.60;;;;;;;;;;518029;28;1302;-63
2023/01/11 01:19:29;;;;;;;1.90;0.70;;;;;;;;;;519017;28;1210;-64
2023/01/11 01:19:45;;;;;;;1.75;0.70;;;;;;;;;;519770;28;1295;-63
2023/01/11 01:20:00;;;;;;;1.57;0.70;;;;;;;;;;521676;28;1342;-63
2023/01/11 01:20:16;;;;;;;1.83;0.80;;;;;;;;;;523407;28;1106;-63
2023/01/11 01:20:31;;;;;;;1.73;0.63;;;;;;;;;;520754;28;1153;-63
2023/01/11 01:20:49;;;;;;;1.57;0.60;;;;;;;;;;520004;28;1279;-63
2023/01/11 01:21:04;;;;;;;1.45;0.70;;;;;;;;;;522491;28;1151;-63
2023/01/11 01:21:20;;;;;;;1.47;0.70;;;;;;;;;;521485;28;1288;-63
2023/01/11 01:21:36;;;;;;;1.70;0.70;;;;;;;;;;519238;28;1243;-63
2023/01/11 01:21:54;;;;;;;1.67;0.70;;;;;;;;;;517810;28;1413;-63
2023/01/11 01:22:09;;;;;;;1.38;0.70;;;;;;;;;;517868;28;1181;-64
2023/01/11 01:22:24;;;;;;;1.70;0.70;;;;;;;;;;517696;28;1486;-63
2023/01/11 01:22:40;;;;;;;1.60;0.67;;;;;;;;;;516249;28;1440;-63
2023/01/11 01:22:55;;;;;;;1.52;0.70;;;;;;;;;;516297;28;1190;-63
2023/01/11 01:23:11;;;;;;;1.70;0.80;;;;;;;;;;519117;28;1325;-63
2023/01/11 01:23:26;;;;;;;1.70;0.70;;;;;;;;;;520037;28;1480;-63
2023/01/11 01:23:41;;;;;;;1.83;0.80;;;;;;;;;;521722;28;1488;-63
2023/01/11 01:23:56;;;;;;;1.80;0.70;;;;;;;;;;523399;28;1547;-63
2023/01/11 01:24:12;;;;;;;1.60;0.57;;;;;;;;;;522014;28;1335;-63
2023/01/11 01:24:28;;;;;;;1.87;0.70;;;;;;;;;;521974;28;1118;-63
2023/01/11 01:24:43;;;;;;;1.52;0.70;;;;;;;;;;523152;28;1349;-62
2023/01/11 01:24:58;;;;;;;1.30;0.60;;;;;;;;;;523317;28;1176;-63
2023/01/11 01:25:14;;;;;;;1.60;0.63;;;;;;;;;;518779;28;1321;-63
2023/01/11 01:25:30;;;;;;;1.60;0.60;;;;;;;;;;522753;28;1077;-63
2023/01/11 01:25:45;;;;;;;1.30;0.63;;;;;;;;;;522476;28;1193;-63
2023/01/11 01:26:04;;;;;;;1.90;0.60;;;;;;;;;;522900;28;1173;-63
2023/01/11 01:26:21;;;;;;;1.67;0.60;;;;;;;;;;521762;28;1436;-63
2023/01/11 01:26:36;;;;;;;1.90;0.60;;;;;;;;;;521973;28;1098;-63
2023/01/11 01:26:51;;;;;;;2.20;0.60;;;;;;;;;;523384;28;1224;-63
2023/01/11 01:27:06;;;;;;;1.30;0.60;;;;;;;;;;522912;28;1259;-63
2023/01/11 01:27:22;;;;;;;0.73;0.70;;;;;;;;;;521664;28;1228;-63
2023/01/11 01:27:37;;;;;;;0.80;0.60;;;;;;;;;;523580;28;1169;-63
2023/01/11 01:27:52;;;;;;;1.37;0.60;;;;;;;;;;524143;28;1006;-63
2023/01/11 01:28:07;;;;;;;1.50;0.67;;;;;;;;;;521582;28;1281;-63
2023/01/11 01:28:24;;;;;;;1.60;0.60;;;;;;;;;;523053;28;1354;-65
2023/01/11 01:28:39;;;;;;;1.83;0.70;;;;;;;;;;521674;28;1061;-63
2023/01/11 01:28:54;;;;;;;1.55;0.70;;;;;;;;;;523058;28;1157;-63
2023/01/11 01:29:10;;;;;;;1.27;0.60;;;;;;;;;;520450;28;1757;-63
2023/01/11 01:29:26;;;;;;;1.13;0.65;;;;;;;;;;520923;28;1439;-63
2023/01/11 01:29:41;;;;;;;1.20;0.60;;;;;;;;;;521467;28;1009;-63
2023/01/11 01:29:56;;;;;;;1.00;0.60;;;;;;;;;;522676;28;1203;-63
2023/01/11 01:30:12;;;;;;;1.33;0.60;;;;;;;;;;523311;28;1035;-63
2023/01/11 01:30:27;;;;;;;1.38;0.60;;;;;;;;;;521942;28;1238;-62
2023/01/11 01:30:42;;;;;;;1.20;0.60;;;;;;;;;;521680;28;1224;-63
2023/01/11 01:30:58;;;;;;;1.48;0.65;;;;;;;;;;522676;28;1214;-62
2023/01/11 01:31:13;;;;;;;1.77;0.70;;;;;;;;;;521175;28;1026;-63
2023/01/11 01:31:28;;;;;;;1.40;0.60;;;;;;;;;;523893;28;1121;-64
2023/01/11 01:31:44;;;;;;;1.15;0.60;;;;;;;;;;523266;28;1294;-63
2023/01/11 01:31:59;;;;;;;1.63;0.70;;;;;;;;;;520791;28;1169;-63
2023/01/11 01:32:14;;;;;;;1.47;0.67;;;;;;;;;;523396;28;1101;-63
2023/01/11 01:32:30;;;;;;;1.60;0.60;;;;;;;;;;524312;28;1169;-63
2023/01/11 01:32:45;;;;;;;1.65;0.60;;;;;;;;;;524545;28;1330;-63
2023/01/11 01:33:00;;;;;;;1.70;0.60;;;;;;;;;;520462;28;1342;-63
2023/01/11 01:33:15;;;;;;;1.50;0.50;;;;;;;;;;521152;28;1240;-63
2023/01/11 01:33:31;;;;;;;1.15;0.55;;;;;;;;;;520393;28;1207;-63
2023/01/11 01:33:46;;;;;;;1.03;0.60;;;;;;;;;;521209;28;1221;-63
2023/01/11 01:34:01;;;;;;;1.30;0.70;;;;;;;;;;522311;28;1196;-63
2023/01/11 01:34:17;;;;;;;1.52;0.60;;;;;;;;;;522804;28;1161;-63
2023/01/11 01:34:36;;;;;;;0.97;0.50;;;;;;;;;;522390;28;1196;-63
2023/01/11 01:34:51;;;;;;;1.23;0.50;;;;;;;;;;524627;28;1250;-63
2023/01/11 01:35:07;;;;;;;1.90;0.50;;;;;;;;;;524210;28;1675;-63
2023/01/11 01:35:23;;;;;;;1.88;0.60;;;;;;;;;;523340;28;1019;-63
2023/01/11 01:35:38;;;;;;;2.23;0.70;;;;;;;;;;522892;28;1389;-63
2023/01/11 01:35:53;;;;;;;1.90;0.70;;;;;;;;;;520701;28;1567;-63
2023/01/11 01:36:09;;;;;;;1.27;0.60;;;;;;;;;;520969;28;1099;-63
2023/01/11 01:36:24;;;;;;;1.47;0.60;;;;;;;;;;521657;28;1172;-63
2023/01/11 01:36:39;;;;;;;1.80;0.60;;;;;;;;;;521909;28;1045;-63
2023/01/11 01:36:55;;;;;;;1.60;0.60;;;;;;;;;;521795;28;1168;-64
2023/01/11 01:37:10;;;;;;;1.10;0.60;;;;;;;;;;522221;28;1241;-63
2023/01/11 01:37:26;;;;;;;1.00;0.57;;;;;;;;;;523254;28;1205;-63
2023/01/11 01:37:42;;;;;;;1.37;0.57;;;;;;;;;;523868;28;1298;-63
2023/01/11 01:37:58;;;;;;;1.30;0.60;;;;;;;;;;522697;28;1360;-63
2023/01/11 01:38:14;;;;;;;1.30;0.60;;;;;;;;;;519691;28;1294;-63
2023/01/11 01:38:29;;;;;;;1.33;0.60;;;;;;;;;;517902;28;1971;-63
2023/01/11 01:38:45;;;;;;;1.02;0.60;;;;;;;;;;518535;28;1206;-63
2023/01/11 01:39:01;;;;;;;1.00;0.60;;;;;;;;;;518164;28;1385;-63
2023/01/11 01:39:16;;;;;;;1.42;0.60;;;;;;;;;;520478;28;1174;-63
2023/01/11 01:39:32;;;;;;;1.17;0.50;;;;;;;;;;518707;28;1094;-63
2023/01/11 01:39:47;;;;;;;1.13;0.50;;;;;;;;;;519046;28;1107;-63
2023/01/11 01:40:03;;;;;;;1.23;0.55;;;;;;;;;;521043;28;1136;-63
2023/01/11 01:40:19;;;;;;;1.20;0.50;;;;;;;;;;519848;28;1318;-62
2023/01/11 01:40:40;;;;;;;1.40;0.65;;;;;;;;;;520190;28;1278;-62
2023/01/11 01:40:56;;;;;;;1.60;0.90;;;;;;;;;;519970;28;1344;-62
2023/01/11 01:41:12;;;;;;;1.43;0.70;;;;;;;;;;520772;28;1299;-62
2023/01/11 01:41:27;;;;;;;1.20;0.60;;;;;;;;;;522083;28;1129;-62
2023/01/11 01:41:43;;;;;;;0.93;0.60;;;;;;;;;;521776;28;1185;-62
2023/01/11 01:41:58;;;;;;;1.50;0.60;;;;;;;;;;522288;28;1259;-62
2023/01/11 01:42:16;;;;;;;1.42;0.70;;;;;;;;;;520727;28;1221;-62
2023/01/11 01:42:31;;;;;;;1.48;0.60;;;;;;;;;;521205;28;1205;-62
2023/01/11 01:42:52;;;;;;;1.70;0.60;;;;;;;;;;523216;28;1216;-62
2023/01/11 01:43:16;;;;;;;1.40;0.70;;;;;;;;;;524247;28;1042;-62
2023/01/11 01:43:51;;;;;;;1.13;0.52;;;;;;;;;;523866;28;2112;-62
2023/01/11 01:44:44;;;;;;;1.30;0.70;;;;;;;;;;523498;28;1047;-62
2023/01/11 01:45:17;;;;;;;1.55;0.60;;;;;;;;;;524770;28;1129;-62
2023/01/11 01:45:32;;;;;;;1.02;0.60;;;;;;;;;;525015;28;1168;-63
2023/01/11 01:45:51;;;;;;;1.90;0.60;;;;;;;;;;521505;28;1273;-63
2023/01/11 01:46:06;;;;;;;1.73;0.73;;;;;;;;;;523642;28;1078;-63
2023/01/11 01:46:26;;;;;;;1.50;0.90;;;;;;;;;;521242;28;1335;-63
2023/01/11 01:46:41;;;;;;;1.90;0.80;;;;;;;;;;522576;28;1417;-63
2023/01/11 01:46:56;;;;;;;2.20;0.70;;;;;;;;;;522789;28;1179;-63
2023/01/11 01:47:12;;;;;;;2.00;0.70;;;;;;;;;;522778;28;1149;-63
2023/01/11 01:47:42;;;;;;;2.20;0.70;;;;;;;;;;521776;28;1090;-63
2023/01/11 01:48:02;;;;;;;1.42;0.60;;;;;;;;;;522754;28;1094;-63
2023/01/11 01:48:23;;;;;;;1.15;0.63;;;;;;;;;;524048;28;1266;-63